createdAt,value
2023-05-04T00:00:17.084Z,100172.16
2023-05-04T00:03:04.263Z,100169.50
2023-05-04T00:05:32.671Z,100166.81
2023-05-04T00:07:59.769Z,100167.03
2023-05-04T00:10:28.075Z,100174.22
2023-05-04T00:12:55.226Z,100167.25
2023-05-04T00:15:23.072Z,100178.97
2023-05-04T00:17:50.223Z,100179.97
2023-05-04T00:20:18.515Z,100169.28
2023-05-04T00:22:45.798Z,100162.31
2023-05-04T00:25:13.294Z,100155.31
2023-05-04T00:27:40.896Z,100164.38
2023-05-04T00:30:09.056Z,100156.53
2023-05-04T00:32:36.188Z,100159.44
2023-05-04T00:35:04.050Z,100163.13
2023-05-04T00:37:31.219Z,100148.13
2023-05-04T00:39:58.600Z,100152.44
2023-05-04T00:42:26.115Z,100159.63
2023-05-04T00:44:54.865Z,100159.63
2023-05-04T00:47:23.132Z,100154.47
2023-05-04T00:49:52.821Z,100146.69
2023-05-04T00:52:20.941Z,100147.47
2023-05-04T00:54:49.002Z,100152.81
2023-05-04T00:57:17.277Z,100145.03
2023-05-04T00:59:44.620Z,100154.09
2023-05-04T01:02:11.873Z,100153.25
2023-05-04T01:04:39.693Z,100154.50
2023-05-04T01:07:22.633Z,100150.38
2023-05-04T01:10:12.405Z,100154.06
2023-05-04T01:12:49.007Z,100149.75
2023-05-04T01:15:16.624Z,100154.47
2023-05-04T01:17:44.129Z,100154.47
2023-05-04T01:20:12.255Z,100154.47
2023-05-04T01:22:39.902Z,100154.91
2023-05-04T01:25:08.479Z,100156.94
2023-05-04T01:27:51.192Z,100156.31
2023-05-04T01:30:32.219Z,100145.63
2023-05-04T01:33:02.868Z,100149.94
2023-05-04T01:35:30.611Z,100146.66
2023-05-04T01:37:57.813Z,100146.66
2023-05-04T01:40:25.371Z,100149.53
2023-05-04T01:42:52.606Z,100152.41
2023-05-04T01:45:20.461Z,100153.63
2023-05-04T01:47:48.031Z,100147.06
2023-05-04T01:50:15.561Z,100145.41
2023-05-04T01:52:42.813Z,100140.91
2023-05-04T01:55:10.440Z,100143.16
2023-05-04T01:57:37.593Z,100151.19
2023-05-04T02:00:05.698Z,100139.25
2023-05-04T02:02:43.372Z,100153.22
2023-05-04T02:05:13.656Z,100145.63
2023-05-04T02:07:40.837Z,100144.59
2023-05-04T02:10:09.195Z,100137.63
2023-05-04T02:12:36.456Z,100135.34
2023-05-04T02:15:05.444Z,100134.72
2023-05-04T02:17:32.774Z,100133.06
2023-05-04T02:20:00.229Z,100129.78
2023-05-04T02:22:28.593Z,100131.22
2023-05-04T02:24:56.798Z,100127.28
2023-05-04T02:27:24.012Z,100132.41
2023-05-04T02:29:51.391Z,100127.47
2023-05-04T02:32:18.636Z,100134.25
2023-05-04T02:34:46.016Z,100134.63
2023-05-04T02:37:13.128Z,100130.72
2023-05-04T02:39:40.463Z,100138.28
2023-05-04T02:42:07.591Z,100137.88
2023-05-04T02:44:35.035Z,100130.88
2023-05-04T02:47:06.228Z,100126.38
2023-05-04T02:49:33.756Z,100125.75
2023-05-04T02:55:33.724Z,100129.81
2023-05-04T02:58:01.391Z,100125.91
2023-05-04T03:00:28.776Z,100135.31
2023-05-04T03:02:55.955Z,100125.06
2023-05-04T03:05:24.041Z,100132.44
2023-05-04T03:07:53.016Z,100132.84
2023-05-04T03:10:20.426Z,100132.44
2023-05-04T03:12:47.725Z,100133.25
2023-05-04T03:15:15.349Z,100142.25
2023-05-04T03:17:43.380Z,100144.69
2023-05-04T03:20:13.439Z,100153.75
2023-05-04T03:22:42.073Z,100147.13
2023-05-04T03:25:10.264Z,100147.13
2023-05-04T03:27:37.872Z,100152.88
2023-05-04T03:30:06.739Z,100158.22
2023-05-04T03:32:35.205Z,100154.94
2023-05-04T03:35:04.111Z,100152.88
2023-05-04T03:37:31.901Z,100152.88
2023-05-04T03:39:59.332Z,100149.41
2023-05-04T03:42:26.692Z,100144.88
2023-05-04T03:44:54.434Z,100143.84
2023-05-04T03:47:21.622Z,100147.13
2023-05-04T03:49:49.138Z,100143.84
2023-05-04T03:52:16.257Z,100147.56
2023-05-04T03:54:43.669Z,100148.56
2023-05-04T03:57:12.087Z,100143.84
2023-05-04T03:59:40.020Z,100145.50
2023-05-04T04:02:07.214Z,100149.19
2023-05-04T04:04:34.822Z,100152.06
2023-05-04T04:07:02.066Z,100155.34
2023-05-04T04:09:31.484Z,100150.00
2023-05-04T04:11:58.610Z,100157.81
2023-05-04T04:14:26.624Z,100154.13
2023-05-04T04:16:53.799Z,100157.41
2023-05-04T04:19:21.192Z,100153.75
2023-05-04T04:21:48.240Z,100152.72
2023-05-04T04:24:15.688Z,100157.41
2023-05-04T04:26:43.161Z,100153.75
2023-05-04T04:29:10.831Z,100158.69
2023-05-04T04:31:38.072Z,100156.66
2023-05-04T04:34:05.937Z,100161.59
2023-05-04T04:36:33.498Z,100163.03
2023-05-04T04:39:00.894Z,100166.13
2023-05-04T04:41:28.165Z,100166.75
2023-05-04T04:43:55.954Z,100169.03
2023-05-04T04:46:23.159Z,100171.47
2023-05-04T04:48:52.514Z,100168.63
2023-05-04T04:51:19.933Z,100174.38
2023-05-04T04:53:47.303Z,100169.47
2023-05-04T04:56:14.646Z,100183.44
2023-05-04T04:58:42.491Z,100183.06
2023-05-04T05:01:09.648Z,100184.69
2023-05-04T05:03:37.299Z,100184.28
2023-05-04T05:06:04.415Z,100178.56
2023-05-04T05:08:33.673Z,100179.78
2023-05-04T05:11:00.781Z,100173.06
2023-05-04T05:13:28.279Z,100180.50
2023-05-04T05:15:55.646Z,100189.72
2023-05-04T05:18:23.960Z,100187.91
2023-05-04T05:20:51.120Z,100180.09
2023-05-04T05:23:18.458Z,100179.50
2023-05-04T05:25:45.649Z,100181.97
2023-05-04T05:28:16.162Z,100188.56
2023-05-04T05:30:44.020Z,100191.22
2023-05-04T05:33:11.513Z,100186.31
2023-05-04T05:35:38.699Z,100184.88
2023-05-04T05:38:06.049Z,100195.56
2023-05-04T05:40:33.259Z,100200.94
2023-05-04T05:43:00.704Z,100200.13
2023-05-04T05:45:27.989Z,100192.31
2023-05-04T05:47:55.915Z,100193.97
2023-05-04T05:50:24.265Z,100195.19
2023-05-04T05:52:51.681Z,100197.25
2023-05-04T05:55:18.938Z,100194.00
2023-05-04T05:57:46.250Z,100197.91
2023-05-04T06:00:14.402Z,100200.16
2023-05-04T06:02:42.775Z,100196.03
2023-05-04T06:05:11.550Z,100200.97
2023-05-04T06:07:38.906Z,100196.03
2023-05-04T06:10:07.025Z,100207.97
2023-05-04T06:12:35.026Z,100196.06
2023-05-04T06:15:02.438Z,100196.47
2023-05-04T06:17:30.032Z,100195.59
2023-05-04T06:19:57.249Z,100193.13
2023-05-04T06:22:24.666Z,100195.59
2023-05-04T06:24:52.952Z,100197.66
2023-05-04T06:27:23.710Z,100199.06
2023-05-04T06:29:52.025Z,100205.22
2023-05-04T06:32:19.503Z,100199.69
2023-05-04T06:34:46.716Z,100191.63
2023-05-04T06:37:15.556Z,100198.41
2023-05-04T06:39:43.232Z,100190.72
2023-05-04T06:42:11.417Z,100191.47
2023-05-04T06:44:40.944Z,100192.47
2023-05-04T06:47:08.432Z,100183.72
2023-05-04T06:49:36.161Z,100189.44
2023-05-04T06:52:03.921Z,100191.41
2023-05-04T06:54:31.839Z,100180.63
2023-05-04T06:56:59.194Z,100189.94
2023-05-04T06:59:26.746Z,100179.84
2023-05-04T07:01:54.314Z,100183.06
2023-05-04T07:04:23.349Z,100174.75
2023-05-04T07:06:51.381Z,100170.56
2023-05-04T07:09:22.136Z,100173.69
2023-05-04T07:11:49.562Z,100173.78
2023-05-04T07:14:16.842Z,100170.22
2023-05-04T07:16:44.425Z,100172.97
2023-05-04T07:19:11.791Z,100169.38
2023-05-04T07:21:39.313Z,100161.69
2023-05-04T07:24:07.347Z,100170.59
2023-05-04T07:26:34.789Z,100152.94
2023-05-04T07:29:02.182Z,100155.16
2023-05-04T07:31:30.577Z,100162.22
2023-05-04T07:33:57.945Z,100157.22
2023-05-04T07:36:26.665Z,100163.63
2023-05-04T07:38:54.621Z,100162.03
2023-05-04T07:41:22.255Z,100156.28
2023-05-04T07:43:49.428Z,100160.75
2023-05-04T07:46:17.112Z,100157.25
2023-05-04T07:48:44.377Z,100148.50
2023-05-04T07:51:16.602Z,100152.00
2023-05-04T07:53:43.863Z,100149.22
2023-05-04T07:56:12.856Z,100152.47
2023-05-04T07:58:41.276Z,100144.41
2023-05-04T08:01:08.699Z,100147.72
2023-05-04T08:03:36.334Z,100156.41
2023-05-04T08:06:04.125Z,100156.16
2023-05-04T08:08:31.275Z,100150.47
2023-05-04T08:11:11.975Z,100151.75
2023-05-04T08:13:48.015Z,100145.03
2023-05-04T08:16:15.665Z,100146.16
2023-05-04T08:18:43.430Z,100152.56
2023-05-04T08:21:11.075Z,100143.69
2023-05-04T08:23:38.468Z,100134.19
2023-05-04T08:26:05.895Z,100144.50
2023-05-04T08:28:39.972Z,100140.13
2023-05-04T08:31:07.827Z,100142.31
2023-05-04T08:33:35.018Z,100143.38
2023-05-04T08:36:04.813Z,100140.56
2023-05-04T08:38:32.118Z,100140.28
2023-05-04T08:41:03.763Z,100147.25
2023-05-04T08:43:35.237Z,100142.59
2023-05-04T08:46:03.948Z,100143.59
2023-05-04T08:48:36.989Z,100141.78
2023-05-04T08:51:06.538Z,100137.28
2023-05-04T08:53:37.235Z,100137.22
2023-05-04T08:56:09.551Z,100133.69
2023-05-04T08:58:43.827Z,100137.28
2023-05-04T09:01:13.046Z,100133.88
2023-05-04T09:03:41.299Z,100132.72
2023-05-04T09:06:11.516Z,100124.78
2023-05-04T09:08:38.746Z,100116.28
2023-05-04T09:11:06.157Z,100120.78
2023-05-04T09:13:34.064Z,100115.53
2023-05-04T09:16:01.556Z,100117.97
2023-05-04T09:18:44.288Z,100126.91
2023-05-04T09:21:12.378Z,100128.31
2023-05-04T09:23:48.319Z,100115.63
2023-05-04T09:26:35.274Z,100119.25
2023-05-04T09:29:16.321Z,100117.00
2023-05-04T09:31:50.413Z,100120.16
2023-05-04T09:34:22.239Z,100114.94
2023-05-04T09:37:02.859Z,100109.66
2023-05-04T09:39:30.702Z,100115.69
2023-05-04T09:41:58.142Z,100115.94
2023-05-04T09:44:29.657Z,100109.59
2023-05-04T09:46:58.777Z,100107.81
2023-05-04T09:49:34.577Z,100106.81
2023-05-04T09:52:05.714Z,100114.72
2023-05-04T09:54:36.085Z,100112.94
2023-05-04T09:57:15.163Z,100105.31
2023-05-04T09:59:42.879Z,100102.28
2023-05-04T10:02:22.423Z,100098.25
2023-05-04T10:04:52.740Z,100093.25
2023-05-04T10:07:21.020Z,100096.50
2023-05-04T10:09:51.158Z,100084.16
2023-05-04T10:12:18.642Z,100083.91
2023-05-04T10:14:46.893Z,100083.78
2023-05-04T10:17:36.444Z,100082.28
2023-05-04T10:20:38.090Z,100081.66
2023-05-04T10:23:33.142Z,100063.44
2023-05-04T10:26:59.568Z,100067.53
2023-05-04T10:29:31.024Z,100067.19
2023-05-04T10:31:59.497Z,100074.06
2023-05-04T10:34:33.620Z,100075.47
2023-05-04T10:37:03.177Z,100073.72
2023-05-04T10:39:34.004Z,100065.94
2023-05-04T10:42:08.402Z,100064.47
2023-05-04T10:44:51.319Z,100064.50
2023-05-04T10:47:37.247Z,100063.56
2023-05-04T10:50:08.490Z,100063.56
2023-05-04T10:52:57.637Z,100059.19
2023-05-04T10:55:26.491Z,100052.56
2023-05-04T10:57:56.738Z,100047.50
2023-05-04T11:00:37.905Z,100045.31
2023-05-04T11:03:09.333Z,100042.47
2023-05-04T11:05:45.596Z,100043.63
2023-05-04T11:08:24.334Z,100033.66
2023-05-04T11:11:07.000Z,100041.00
2023-05-04T11:13:35.029Z,100034.94
2023-05-04T11:16:05.285Z,100036.34
2023-05-04T11:18:37.283Z,100030.88
2023-05-04T11:21:04.929Z,100023.44
2023-05-04T11:23:32.623Z,100034.09
2023-05-04T11:26:07.971Z,100020.69
2023-05-04T11:28:38.221Z,100021.41
2023-05-04T11:31:17.111Z,100009.00
2023-05-04T11:33:50.209Z,100010.31
2023-05-04T11:36:19.220Z,100014.00
2023-05-04T11:38:47.550Z,100012.91
2023-05-04T11:41:15.133Z,100004.69
2023-05-04T11:43:45.301Z,100007.38
2023-05-04T11:46:14.684Z,99989.31
2023-05-04T11:48:42.131Z,99993.38
2023-05-04T11:51:10.035Z,99990.09
2023-05-04T11:53:39.084Z,99993.06
2023-05-04T11:56:10.664Z,99994.03
2023-05-04T11:58:38.091Z,99996.34
2023-05-04T12:01:05.906Z,99992.38
2023-05-04T12:06:06.060Z,99986.97
2023-05-04T12:08:42.008Z,99985.81
2023-05-04T12:11:25.953Z,99988.97
2023-05-04T12:14:14.034Z,99986.34
2023-05-04T12:16:42.942Z,99979.59
2023-05-04T12:19:13.128Z,99977.75
2023-05-04T12:21:54.397Z,99975.78
2023-05-04T12:24:23.848Z,99977.53
2023-05-04T12:26:51.946Z,99970.91
2023-05-04T12:29:19.154Z,99977.13
2023-05-04T12:31:47.428Z,99973.47
2023-05-04T12:34:14.724Z,99966.63
2023-05-04T12:36:42.072Z,99970.00
2023-05-04T12:39:09.283Z,99963.66
2023-05-04T12:41:37.248Z,99960.34
2023-05-04T12:44:04.727Z,99963.28
2023-05-04T12:46:32.185Z,99951.97
2023-05-04T12:48:59.337Z,99956.94
2023-05-04T12:51:26.883Z,99948.41
2023-05-04T12:53:55.616Z,99950.03
2023-05-04T12:56:23.024Z,99952.38
2023-05-04T12:58:50.240Z,99940.81
2023-05-04T13:01:18.047Z,99946.22
2023-05-04T13:03:45.421Z,99949.81
2023-05-04T13:06:13.463Z,99955.19
2023-05-04T13:08:40.688Z,99948.84
2023-05-04T13:11:08.746Z,99945.31
2023-05-04T13:13:36.136Z,99943.09
2023-05-04T13:16:03.812Z,99940.50
2023-05-04T13:18:31.136Z,99931.81
2023-05-04T13:20:59.242Z,99945.00
2023-05-04T13:23:26.716Z,99932.88
2023-05-04T13:25:54.651Z,99924.66
2023-05-04T13:28:21.873Z,99929.59
2023-05-04T13:30:49.367Z,99934.81
2023-05-04T13:33:27.911Z,99929.63
2023-05-04T13:35:57.990Z,99928.41
2023-05-04T13:38:25.720Z,99914.38
2023-05-04T13:40:56.502Z,99906.97
2023-05-04T13:43:24.889Z,99901.91
2023-05-04T13:45:52.579Z,99898.25
2023-05-04T13:48:19.755Z,99898.19
2023-05-04T13:50:47.172Z,99886.75
2023-05-04T13:53:14.701Z,99889.53
2023-05-04T13:55:43.744Z,99878.03
2023-05-04T13:58:11.021Z,99881.16
2023-05-04T14:00:38.575Z,99884.69
2023-05-04T14:03:05.744Z,99882.25
2023-05-04T14:05:35.398Z,99872.53
2023-05-04T14:08:02.932Z,99880.94
2023-05-04T14:10:30.304Z,99873.94
2023-05-04T14:12:57.707Z,99865.75
2023-05-04T14:15:27.398Z,99877.31
2023-05-04T14:17:54.654Z,99865.66
2023-05-04T14:20:22.457Z,99869.44
2023-05-04T14:22:49.622Z,99868.56
2023-05-04T14:25:17.107Z,99873.34
2023-05-04T14:27:44.363Z,99872.38
2023-05-04T14:30:12.646Z,99867.94
2023-05-04T14:32:41.076Z,99858.06
2023-05-04T14:35:10.502Z,99859.69
2023-05-04T14:37:40.383Z,99863.28
2023-05-04T14:40:10.880Z,99856.94
2023-05-04T14:42:38.460Z,99863.53
2023-05-04T14:45:08.163Z,99856.72
2023-05-04T14:47:35.709Z,99856.13
2023-05-04T14:50:03.655Z,99853.72
2023-05-04T14:52:31.539Z,99857.13
2023-05-04T14:54:58.929Z,99862.38
2023-05-04T14:57:28.751Z,99864.13
2023-05-04T14:59:56.121Z,99864.22
2023-05-04T15:02:23.504Z,99857.56
2023-05-04T15:04:51.008Z,99850.97
2023-05-04T15:07:20.634Z,99846.94
2023-05-04T15:09:48.491Z,99857.56
2023-05-04T15:12:16.466Z,99860.38
2023-05-04T15:14:44.486Z,99861.63
2023-05-04T15:17:12.068Z,99859.41
2023-05-04T15:19:39.935Z,99857.56
2023-05-04T15:22:07.578Z,99853.53
2023-05-04T15:24:35.456Z,99860.19
2023-05-04T15:27:03.660Z,99848.66
2023-05-04T15:29:31.310Z,99855.94
2023-05-04T15:31:58.558Z,99850.88
2023-05-04T15:34:26.158Z,99842.28
2023-05-04T15:36:55.014Z,99845.59
2023-05-04T15:39:22.377Z,99841.75
2023-05-04T15:41:49.488Z,99849.25
2023-05-04T15:44:17.608Z,99843.69
2023-05-04T15:46:45.511Z,99842.13
2023-05-04T15:49:13.123Z,99841.31
2023-05-04T15:51:40.392Z,99836.38
2023-05-04T15:54:07.790Z,99834.16
2023-05-04T15:56:35.363Z,99837.50
2023-05-04T15:59:07.152Z,99833.38
2023-05-04T16:01:34.371Z,99821.94
2023-05-04T16:04:04.555Z,99834.16
2023-05-04T16:06:31.773Z,99833.50
2023-05-04T16:08:59.171Z,99830.69
2023-05-04T16:11:26.312Z,99827.28
2023-05-04T16:13:53.648Z,99827.69
2023-05-04T16:16:20.938Z,99823.22
2023-05-04T16:18:48.435Z,99827.03
2023-05-04T16:21:15.724Z,99826.44
2023-05-04T16:23:43.151Z,99825.69
2023-05-04T16:26:10.482Z,99825.53
2023-05-04T16:28:37.963Z,99827.50
2023-05-04T16:31:06.031Z,99826.75
2023-05-04T16:33:33.607Z,99822.31
2023-05-04T16:36:00.826Z,99824.00
2023-05-04T16:38:29.334Z,99829.81
2023-05-04T16:40:56.487Z,99821.19
2023-05-04T16:43:24.305Z,99821.72
2023-05-04T16:45:51.422Z,99816.69
2023-05-04T16:48:18.894Z,99811.00
2023-05-04T16:50:46.440Z,99815.66
2023-05-04T16:53:13.800Z,99817.97
2023-05-04T16:55:41.032Z,99820.94
2023-05-04T16:58:08.435Z,99821.56
2023-05-04T17:00:35.770Z,99824.34
2023-05-04T17:03:03.374Z,99832.91
2023-05-04T17:05:30.647Z,99823.66
2023-05-04T17:07:58.043Z,99816.00
2023-05-04T17:10:25.210Z,99819.31
2023-05-04T17:12:54.604Z,99821.78
2023-05-04T17:15:21.924Z,99829.53
2023-05-04T17:17:49.405Z,99821.38
2023-05-04T17:20:16.591Z,99830.22
2023-05-04T17:22:44.457Z,99827.00
2023-05-04T17:25:12.696Z,99833.47
2023-05-04T17:27:40.332Z,99828.03
2023-05-04T17:30:08.347Z,99834.59
2023-05-04T17:32:37.415Z,99835.78
2023-05-04T17:35:16.482Z,99835.91
2023-05-04T17:37:51.226Z,99842.56
2023-05-04T17:40:18.419Z,99839.41
2023-05-04T17:42:45.876Z,99844.06
2023-05-04T17:45:13.140Z,99846.88
2023-05-04T17:47:40.773Z,99841.25
2023-05-04T17:50:08.584Z,99841.03
2023-05-04T17:52:36.434Z,99839.22
2023-05-04T17:55:04.378Z,99843.63
2023-05-04T17:57:31.753Z,99840.41
2023-05-04T17:59:59.696Z,99844.75
2023-05-04T18:02:29.581Z,99851.81
2023-05-04T18:04:56.812Z,99858.06
2023-05-04T18:07:24.127Z,99864.03
2023-05-04T18:09:51.581Z,99853.19
2023-05-04T18:12:18.887Z,99867.31
2023-05-04T18:14:46.014Z,99858.91
2023-05-04T18:17:13.708Z,99874.63
2023-05-04T18:19:40.713Z,99870.28
2023-05-04T18:22:08.397Z,99870.53
2023-05-04T18:24:35.581Z,99883.84
2023-05-04T18:27:03.043Z,99883.28
2023-05-04T18:29:30.720Z,99893.78
2023-05-04T18:31:59.628Z,99893.50
2023-05-04T18:34:26.732Z,99900.75
2023-05-04T18:36:54.389Z,99900.97
2023-05-04T18:39:21.655Z,99897.13
2023-05-04T18:41:50.718Z,99899.53
2023-05-04T18:44:17.803Z,99896.50
2023-05-04T18:46:45.152Z,99899.72
2023-05-04T18:49:12.287Z,99899.94
2023-05-04T18:51:41.674Z,99890.94
2023-05-04T18:54:09.043Z,99902.22
2023-05-04T18:56:36.423Z,99904.59
2023-05-04T18:59:05.882Z,99898.88
2023-05-04T19:01:33.560Z,99898.50
2023-05-04T19:04:00.788Z,99902.22
2023-05-04T19:06:28.501Z,99894.59
2023-05-04T19:08:55.808Z,99897.75
2023-05-04T19:11:23.196Z,99894.22
2023-05-04T19:13:50.219Z,99897.38
2023-05-04T19:16:17.863Z,99896.75
2023-05-04T19:18:45.621Z,99897.75
2023-05-04T19:21:13.062Z,99900.94
2023-05-04T19:23:40.257Z,99900.81
2023-05-04T19:26:07.853Z,99898.56
2023-05-04T19:28:35.274Z,99899.50
2023-05-04T19:31:03.158Z,99900.47
2023-05-04T19:33:44.546Z,99909.00
2023-05-04T19:36:16.160Z,99902.47
2023-05-04T19:38:43.423Z,99905.13
2023-05-04T19:41:11.110Z,99906.09
2023-05-04T19:43:38.830Z,99899.03
2023-05-04T19:46:06.750Z,99898.88
2023-05-04T19:48:34.093Z,99892.88
2023-05-04T19:51:02.790Z,99895.88
2023-05-04T19:53:31.114Z,99890.66
2023-05-04T19:55:59.071Z,99901.03
2023-05-04T19:58:28.089Z,99892.31
2023-05-04T20:00:56.018Z,99887.09
2023-05-04T20:03:25.519Z,99891.03
2023-05-04T20:05:53.384Z,99888.81
2023-05-04T20:08:20.850Z,99882.78
2023-05-04T20:10:48.219Z,99891.03
2023-05-04T20:13:15.435Z,99881.22
2023-05-04T20:15:42.791Z,99884.56
2023-05-04T20:18:10.005Z,99882.88
2023-05-04T20:20:37.428Z,99880.56
2023-05-04T20:23:05.014Z,99888.00
2023-05-04T20:25:32.534Z,99888.34
2023-05-04T20:27:59.730Z,99887.69
2023-05-04T20:30:28.605Z,99884.91
2023-05-04T20:32:55.754Z,99877.19
2023-05-04T20:35:24.781Z,99883.56
2023-05-04T20:37:51.922Z,99873.75
2023-05-04T20:40:19.639Z,99883.00
2023-05-04T20:42:46.814Z,99871.56
2023-05-04T20:45:14.245Z,99873.34
2023-05-04T20:47:41.471Z,99877.00
2023-05-04T20:50:10.311Z,99871.97
2023-05-04T20:52:38.431Z,99863.69
2023-05-04T20:55:07.425Z,99861.38
2023-05-04T20:57:34.867Z,99863.94
2023-05-04T21:00:04.893Z,99858.47
2023-05-04T21:02:32.659Z,99855.09
2023-05-04T21:05:02.340Z,99862.25
2023-05-04T21:07:29.594Z,99861.91
2023-05-04T21:09:59.843Z,99860.13
2023-05-04T21:12:27.049Z,99857.34
2023-05-04T21:14:54.489Z,99861.97
2023-05-04T21:17:21.746Z,99866.19
2023-05-04T21:19:49.117Z,99851.59
2023-05-04T21:22:17.601Z,99854.63
2023-05-04T21:24:46.680Z,99860.72
2023-05-04T21:27:14.137Z,99857.53
2023-05-04T21:29:41.596Z,99862.22
2023-05-04T21:32:09.124Z,99855.56
2023-05-04T21:34:36.859Z,99859.16
2023-05-04T21:37:04.239Z,99856.72
2023-05-04T21:39:31.830Z,99849.44
2023-05-04T21:41:59.102Z,99856.56
2023-05-04T21:44:26.521Z,99856.63
2023-05-04T21:46:53.763Z,99858.41
2023-05-04T21:49:21.326Z,99850.66
2023-05-04T21:51:49.164Z,99858.13
2023-05-04T21:54:16.467Z,99856.94
2023-05-04T21:56:43.608Z,99854.50
2023-05-04T21:59:10.975Z,99862.41
2023-05-04T22:01:38.224Z,99859.47
2023-05-04T22:04:09.518Z,99847.56
2023-05-04T22:06:36.721Z,99848.03
2023-05-04T22:09:05.032Z,99845.41
2023-05-04T22:11:32.354Z,99844.44
2023-05-04T22:13:59.642Z,99843.28
2023-05-04T22:16:26.926Z,99845.38
2023-05-04T22:18:54.415Z,99848.72
2023-05-04T22:21:21.553Z,99853.72
2023-05-04T22:23:48.950Z,99851.47
2023-05-04T22:26:16.135Z,99860.78
2023-05-04T22:28:45.020Z,99851.34
2023-05-04T22:31:12.261Z,99852.84
2023-05-04T22:33:39.689Z,99848.38
2023-05-04T22:36:07.425Z,99846.59
2023-05-04T22:38:34.820Z,99842.94
2023-05-04T22:41:04.257Z,99839.66
2023-05-04T22:43:31.560Z,99843.03
2023-05-04T22:45:58.729Z,99837.28
2023-05-04T22:48:26.072Z,99843.09
2023-05-04T22:50:53.312Z,99845.63
2023-05-04T22:53:20.884Z,99842.00
2023-05-04T22:55:48.031Z,99842.03
2023-05-04T22:58:15.421Z,99840.03
2023-05-04T23:00:43.099Z,99845.38
2023-05-04T23:03:10.938Z,99842.56
2023-05-04T23:05:38.055Z,99850.81
2023-05-04T23:08:05.624Z,99839.72
2023-05-04T23:10:32.795Z,99836.88
2023-05-04T23:13:01.095Z,99837.94
2023-05-04T23:15:29.511Z,99833.69
2023-05-04T23:17:56.903Z,99828.09
2023-05-04T23:20:24.193Z,99833.28
2023-05-04T23:22:51.615Z,99835.81
2023-05-04T23:25:18.891Z,99832.53
2023-05-04T23:27:46.351Z,99836.72
2023-05-04T23:30:14.050Z,99829.34
2023-05-04T23:32:41.455Z,99819.88
2023-05-04T23:35:09.275Z,99812.28
2023-05-04T23:37:36.711Z,99810.44
2023-05-04T23:40:05.692Z,99809.25
2023-05-04T23:42:33.136Z,99806.41
2023-05-04T23:45:00.211Z,99809.75
2023-05-04T23:47:29.889Z,99814.50
2023-05-04T23:49:57.017Z,99815.94
2023-05-04T23:52:24.322Z,99822.56
2023-05-04T23:54:54.791Z,99819.72
2023-05-04T23:57:22.336Z,99836.66
2023-05-04T23:59:49.668Z,99828.03
